sensor_id;sensor_type;location;lat;lon;timestamp;pressure;altitude;pressure_sealevel;temperature;humidity
6938;BME280;40040;42.706;23.372;2023-04-15T00:00:36;146064.84;;;7.66;100.00
6938;BME280;40040;42.706;23.372;2023-04-15T00:03:04;146073.44;;;7.69;100.00
6938;BME280;40040;42.706;23.372;2023-04-15T00:05:31;146077.13;;;7.71;100.00
6938;BME280;40040;42.706;23.372;2023-04-15T00:07:58;146030.38;;;7.52;100.00
6938;BME280;40040;42.706;23.372;2023-04-15T00:10:25;145957.75;;;7.22;100.00
6938;BME280;40040;42.706;23.372;2023-04-15T00:12:53;145968.88;;;7.27;100.00
6938;BME280;40040;42.706;23.372;2023-04-15T00:15:20;145995.91;;;7.38;100.00
6938;BME280;40040;42.706;23.372;2023-04-15T00:17:49;145992.22;;;7.36;100.00
6938;BME280;40040;42.706;23.372;2023-04-15T00:20:16;145968.88;;;7.27;100.00
6938;BME280;40040;42.706;23.372;2023-04-15T00:22:43;145909.78;;;7.03;100.00
6938;BME280;40040;42.706;23.372;2023-04-15T00:25:10;145979.91;;;7.31;100.00
6938;BME280;40040;42.706;23.372;2023-04-15T00:27:37;145987.28;;;7.34;100.00
6938;BME280;40040;42.706;23.372;2023-04-15T00:30:06;145892.59;;;6.96;100.00
6938;BME280;40040;42.706;23.372;2023-04-15T00:32:33;145941.78;;;7.16;100.00
6938;BME280;40040;42.706;23.372;2023-04-15T00:35:01;145945.47;;;7.17;100.00
6938;BME280;40040;42.706;23.372;2023-04-15T00:37:28;145907.34;;;7.02;100.00
6938;BME280;40040;42.706;23.372;2023-04-15T00:39:55;145924.56;;;7.09;100.00
6938;BME280;40040;42.706;23.372;2023-04-15T00:42:22;145865.50;;;6.84;100.00
6938;BME280;40040;42.706;23.372;2023-04-15T00:44:50;145880.25;;;6.91;100.00
6938;BME280;40040;42.706;23.372;2023-04-15T00:47:17;145890.09;;;6.95;100.00
6938;BME280;40040;42.706;23.372;2023-04-15T00:49:45;145899.97;;;6.99;100.00
6938;BME280;40040;42.706;23.372;2023-04-15T00:52:14;145892.59;;;6.96;100.00
6938;BME280;40040;42.706;23.372;2023-04-15T00:54:40;145886.41;;;6.93;100.00
6938;BME280;40040;42.706;23.372;2023-04-15T00:57:07;145917.19;;;7.06;100.00
6938;BME280;40040;42.706;23.372;2023-04-15T00:59:34;145914.69;;;7.05;100.00
6938;BME280;40040;42.706;23.372;2023-04-15T01:02:01;145922.13;;;7.08;100.00
6938;BME280;40040;42.706;23.372;2023-04-15T01:04:29;145931.94;;;7.12;100.00
6938;BME280;40040;42.706;23.372;2023-04-15T01:06:56;145912.25;;;7.04;100.00
6938;BME280;40040;42.706;23.372;2023-04-15T01:09:24;145941.78;;;7.16;100.00
6938;BME280;40040;42.706;23.372;2023-04-15T01:11:52;145912.25;;;7.04;100.00
6938;BME280;40040;42.706;23.372;2023-04-15T01:14:20;145902.41;;;7.00;100.00
6938;BME280;40040;42.706;23.372;2023-04-15T01:16:46;145885.19;;;6.93;100.00
6938;BME280;40040;42.706;23.372;2023-04-15T01:19:15;145917.19;;;7.06;100.00
6938;BME280;40040;42.706;23.372;2023-04-15T01:21:43;145941.78;;;7.16;100.00
6938;BME280;40040;42.706;23.372;2023-04-15T01:24:10;145951.63;;;7.20;100.00
6938;BME280;40040;42.706;23.372;2023-04-15T01:26:39;145935.59;;;7.13;100.00
6938;BME280;40040;42.706;23.372;2023-04-15T01:29:06;145913.50;;;7.04;100.00
6938;BME280;40040;42.706;23.372;2023-04-15T01:31:33;145965.19;;;7.25;100.00
6938;BME280;40040;42.706;23.372;2023-04-15T01:34:00;145993.47;;;7.37;100.00
6938;BME280;40040;42.706;23.372;2023-04-15T01:36:27;145971.31;;;7.28;100.00
6938;BME280;40040;42.706;23.372;2023-04-15T01:38:55;145949.16;;;7.19;100.00
6938;BME280;40040;42.706;23.372;2023-04-15T01:41:24;145950.41;;;7.19;100.00
6938;BME280;40040;42.706;23.372;2023-04-15T01:43:52;145863.03;;;6.83;100.00
6938;BME280;40040;42.706;23.372;2023-04-15T01:46:20;145870.44;;;6.87;100.00
6938;BME280;40040;42.706;23.372;2023-04-15T01:48:46;145847.06;;;6.77;100.00
6938;BME280;40040;42.706;23.372;2023-04-15T01:51:13;145812.59;;;6.63;100.00
6938;BME280;40040;42.706;23.372;2023-04-15T01:53:40;145788.03;;;6.53;100.00
6938;BME280;40040;42.706;23.372;2023-04-15T01:56:07;145781.84;;;6.50;100.00
6938;BME280;40040;42.706;23.372;2023-04-15T01:58:34;145736.38;;;6.32;100.00
6938;BME280;40040;42.706;23.372;2023-04-15T02:01:03;145703.19;;;6.18;100.00
6938;BME280;40040;42.706;23.372;2023-04-15T02:03:29;145667.53;;;6.04;100.00
6938;BME280;40040;42.706;23.372;2023-04-15T02:05:56;145665.09;;;6.03;100.00
6938;BME280;40040;42.706;23.372;2023-04-15T02:08:23;145644.19;;;5.94;100.00
6938;BME280;40040;42.706;23.372;2023-04-15T02:10:50;145639.28;;;5.92;100.00
6938;BME280;40040;42.706;23.372;2023-04-15T02:13:17;145645.38;;;5.95;100.00
6938;BME280;40040;42.706;23.372;2023-04-15T02:15:46;145666.31;;;6.03;100.00
6938;BME280;40040;42.706;23.372;2023-04-15T02:18:15;145663.84;;;6.02;100.00
6938;BME280;40040;42.706;23.372;2023-04-15T02:20:42;145670.00;;;6.05;100.00
6938;BME280;40040;42.706;23.372;2023-04-15T02:23:09;145587.59;;;5.71;100.00
6938;BME280;40040;42.706;23.372;2023-04-15T02:25:36;145579.00;;;5.67;100.00
6938;BME280;40040;42.706;23.372;2023-04-15T02:28:03;145511.44;;;5.40;100.00
6938;BME280;40040;42.706;23.372;2023-04-15T02:30:30;145555.63;;;5.58;100.00
6938;BME280;40040;42.706;23.372;2023-04-15T02:32:59;145549.50;;;5.55;100.00
6938;BME280;40040;42.706;23.372;2023-04-15T02:35:27;145565.47;;;5.62;100.00
6938;BME280;40040;42.706;23.372;2023-04-15T02:37:54;145560.56;;;5.60;100.00
6938;BME280;40040;42.706;23.372;2023-04-15T02:40:21;145472.09;;;5.24;100.00
6938;BME280;40040;42.706;23.372;2023-04-15T02:42:48;145528.63;;;5.47;100.00
6938;BME280;40040;42.706;23.372;2023-04-15T02:45:15;145545.84;;;5.54;100.00
6938;BME280;40040;42.706;23.372;2023-04-15T02:47:44;145553.19;;;5.57;100.00
6938;BME280;40040;42.706;23.372;2023-04-15T02:50:12;145540.91;;;5.52;100.00
6938;BME280;40040;42.706;23.372;2023-04-15T02:52:41;145512.66;;;5.40;100.00
6938;BME280;40040;42.706;23.372;2023-04-15T02:55:09;145506.50;;;5.38;100.00
6938;BME280;40040;42.706;23.372;2023-04-15T02:57:36;145472.09;;;5.24;100.00
6938;BME280;40040;42.706;23.372;2023-04-15T03:00:04;145351.72;;;4.75;100.00
6938;BME280;40040;42.706;23.372;2023-04-15T03:02:34;145415.59;;;5.01;100.00
6938;BME280;40040;42.706;23.372;2023-04-15T03:05:01;145383.69;;;4.88;100.00
6938;BME280;40040;42.706;23.372;2023-04-15T03:07:29;145400.88;;;4.95;100.00
6938;BME280;40040;42.706;23.372;2023-04-15T03:09:57;145432.78;;;5.08;100.00
6938;BME280;40040;42.706;23.372;2023-04-15T03:12:24;145413.16;;;5.00;100.00
6938;BME280;40040;42.706;23.372;2023-04-15T03:14:51;145380.00;;;4.86;100.00
6938;BME280;40040;42.706;23.372;2023-04-15T03:17:17;145287.88;;;4.48;100.00
6938;BME280;40040;42.706;23.372;2023-04-15T03:19:44;145371.41;;;4.83;100.00
6938;BME280;40040;42.706;23.372;2023-04-15T03:22:11;145327.19;;;4.65;100.00
6938;BME280;40040;42.706;23.372;2023-04-15T03:24:38;145327.19;;;4.65;100.00
6938;BME280;40040;42.706;23.372;2023-04-15T03:27:06;145333.34;;;4.67;100.00
6938;BME280;40040;42.706;23.372;2023-04-15T03:29:33;145297.72;;;4.52;100.00
6938;BME280;40040;42.706;23.372;2023-04-15T03:32:00;145294.06;;;4.51;100.00
6938;BME280;40040;42.706;23.372;2023-04-15T03:34:27;145270.69;;;4.41;100.00
6938;BME280;40040;42.706;23.372;2023-04-15T03:36:54;145275.63;;;4.43;100.00
6938;BME280;40040;42.706;23.372;2023-04-15T03:39:21;145273.19;;;4.42;100.00
6938;BME280;40040;42.706;23.372;2023-04-15T03:41:48;145295.28;;;4.51;100.00
6938;BME280;40040;42.706;23.372;2023-04-15T03:44:16;145308.75;;;4.57;100.00
6938;BME280;40040;42.706;23.372;2023-04-15T03:46:43;145324.75;;;4.64;100.00
6938;BME280;40040;42.706;23.372;2023-04-15T03:49:10;145329.63;;;4.66;100.00
6938;BME280;40040;42.706;23.372;2023-04-15T03:51:36;145334.53;;;4.68;100.00
6938;BME280;40040;42.706;23.372;2023-04-15T03:54:03;145332.09;;;4.67;100.00
6938;BME280;40040;42.706;23.372;2023-04-15T03:56:30;145329.63;;;4.66;100.00
6938;BME280;40040;42.706;23.372;2023-04-15T03:58:57;145345.63;;;4.72;100.00
6938;BME280;40040;42.706;23.372;2023-04-15T04:01:25;145305.06;;;4.55;100.00
6938;BME280;40040;42.706;23.372;2023-04-15T04:03:52;145371.41;;;4.83;100.00
6938;BME280;40040;42.706;23.372;2023-04-15T04:06:19;145395.97;;;4.93;100.00
6938;BME280;40040;42.706;23.372;2023-04-15T04:08:46;145395.97;;;4.93;100.00
6938;BME280;40040;42.706;23.372;2023-04-15T04:11:12;145402.06;;;4.95;100.00
6938;BME280;40040;42.706;23.372;2023-04-15T04:13:39;145393.47;;;4.92;100.00
6938;BME280;40040;42.706;23.372;2023-04-15T04:16:06;145384.88;;;4.88;100.00
6938;BME280;40040;42.706;23.372;2023-04-15T04:18:34;145402.06;;;4.95;100.00
6938;BME280;40040;42.706;23.372;2023-04-15T04:21:01;145395.97;;;4.93;100.00
6938;BME280;40040;42.706;23.372;2023-04-15T04:23:28;145395.97;;;4.93;100.00
6938;BME280;40040;42.706;23.372;2023-04-15T04:25:55;145427.88;;;5.06;100.00
6938;BME280;40040;42.706;23.372;2023-04-15T04:28:22;145435.28;;;5.09;100.00
6938;BME280;40040;42.706;23.372;2023-04-15T04:30:48;145418.06;;;5.02;100.00
6938;BME280;40040;42.706;23.372;2023-04-15T04:33:15;145446.31;;;5.13;100.00
6938;BME280;40040;42.706;23.372;2023-04-15T04:35:43;145494.22;;;5.33;100.00
6938;BME280;40040;42.706;23.372;2023-04-15T04:38:10;145524.94;;;5.45;100.00
6938;BME280;40040;42.706;23.372;2023-04-15T04:40:37;145545.84;;;5.54;100.00
6938;BME280;40040;42.706;23.372;2023-04-15T04:43:04;145550.75;;;5.56;100.00
6938;BME280;40040;42.706;23.372;2023-04-15T04:45:31;145544.59;;;5.53;100.00
6938;BME280;40040;42.706;23.372;2023-04-15T04:47:57;145563.03;;;5.61;100.00
6938;BME280;40040;42.706;23.372;2023-04-15T04:50:24;145580.25;;;5.68;100.00
6938;BME280;40040;42.706;23.372;2023-04-15T04:52:53;145579.00;;;5.67;100.00
6938;BME280;40040;42.706;23.372;2023-04-15T04:55:19;145599.88;;;5.76;100.00
6938;BME280;40040;42.706;23.372;2023-04-15T04:57:46;145622.06;;;5.85;100.00
6938;BME280;40040;42.706;23.372;2023-04-15T05:00:13;145651.56;;;5.97;100.00
6938;BME280;40040;42.706;23.372;2023-04-15T05:02:40;145673.69;;;6.06;100.00
6938;BME280;40040;42.706;23.372;2023-04-15T05:05:08;145688.41;;;6.12;100.00
6938;BME280;40040;42.706;23.372;2023-04-15T05:07:36;145690.91;;;6.13;100.00
6938;BME280;40040;42.706;23.372;2023-04-15T05:10:05;145749.91;;;6.37;100.00
6938;BME280;40040;42.706;23.372;2023-04-15T05:12:32;145776.97;;;6.48;100.00
6938;BME280;40040;42.706;23.372;2023-04-15T05:14:59;145813.84;;;6.63;100.00
6938;BME280;40040;42.706;23.372;2023-04-15T05:17:26;145858.16;;;6.81;100.00
6938;BME280;40040;42.706;23.372;2023-04-15T05:19:53;145912.25;;;7.04;100.00
6938;BME280;40040;42.706;23.372;2023-04-15T05:22:20;145971.31;;;7.28;100.00
6938;BME280;40040;42.706;23.372;2023-04-15T05:24:47;146015.63;;;7.46;100.00
6938;BME280;40040;42.706;23.372;2023-04-15T05:27:15;146093.16;;;7.77;100.00
6938;BME280;40040;42.706;23.372;2023-04-15T05:29:43;146160.88;;;8.05;100.00
6938;BME280;40040;42.706;23.372;2023-04-15T05:32:10;146232.34;;;8.34;100.00
6938;BME280;40040;42.706;23.372;2023-04-15T05:34:37;146306.25;;;8.64;95.96
6938;BME280;40040;42.706;23.372;2023-04-15T05:37:03;146377.69;;;8.93;93.99
6938;BME280;40040;42.706;23.372;2023-04-15T05:39:30;146441.75;;;9.20;91.73
6938;BME280;40040;42.706;23.372;2023-04-15T05:41:57;146513.25;;;9.49;90.17
6938;BME280;40040;42.706;23.372;2023-04-15T05:44:25;146585.97;;;9.78;86.30
6938;BME280;40040;42.706;23.372;2023-04-15T05:46:52;146653.78;;;10.06;85.95
6938;BME280;40040;42.706;23.372;2023-04-15T05:49:19;146695.81;;;10.23;83.37
6938;BME280;40040;42.706;23.372;2023-04-15T05:51:46;146677.28;;;10.15;81.47
6938;BME280;40040;42.706;23.372;2023-04-15T05:54:13;146721.72;;;10.34;79.57
6938;BME280;40040;42.706;23.372;2023-04-15T05:56:40;146737.75;;;10.40;78.51
6938;BME280;40040;42.706;23.372;2023-04-15T05:59:07;146716.78;;;10.32;78.39
6938;BME280;40040;42.706;23.372;2023-04-15T06:01:35;146755.00;;;10.47;77.75
6938;BME280;40040;42.706;23.372;2023-04-15T06:04:02;146779.66;;;10.57;78.73
6938;BME280;40040;42.706;23.372;2023-04-15T06:06:29;146748.81;;;10.45;76.71
6938;BME280;40040;42.706;23.372;2023-04-15T06:08:56;146883.34;;;10.99;75.75
6938;BME280;40040;42.706;23.372;2023-04-15T06:11:24;146888.28;;;11.01;74.11
6938;BME280;40040;42.706;23.372;2023-04-15T06:13:51;146893.22;;;11.03;72.73
6938;BME280;40040;42.706;23.372;2023-04-15T06:16:18;146890.72;;;11.02;72.81
6938;BME280;40040;42.706;23.372;2023-04-15T06:18:46;146851.22;;;10.86;74.17
6938;BME280;40040;42.706;23.372;2023-04-15T06:21:13;146857.41;;;10.89;75.15
6938;BME280;40040;42.706;23.372;2023-04-15T06:23:40;146945.03;;;11.24;72.58
6938;BME280;40040;42.706;23.372;2023-04-15T06:26:07;146996.88;;;11.46;71.32
6938;BME280;40040;42.706;23.372;2023-04-15T06:28:34;146928.97;;;11.18;70.40
6938;BME280;40040;42.706;23.372;2023-04-15T06:31:01;147009.22;;;11.51;67.56
6938;BME280;40040;42.706;23.372;2023-04-15T06:33:28;147073.50;;;11.77;68.14
6938;BME280;40040;42.706;23.372;2023-04-15T06:35:56;147085.84;;;11.82;67.89
6938;BME280;40040;42.706;23.372;2023-04-15T06:38:23;147272.38;;;12.58;64.29
6938;BME280;40040;42.706;23.372;2023-04-15T06:40:50;147327.97;;;12.80;63.51
6938;BME280;40040;42.706;23.372;2023-04-15T06:43:17;147442.97;;;13.27;61.61
6938;BME280;40040;42.706;23.372;2023-04-15T06:45:44;147538.19;;;13.66;60.47
6938;BME280;40040;42.706;23.372;2023-04-15T06:48:11;147617.38;;;13.98;59.90
6938;BME280;40040;42.706;23.372;2023-04-15T06:50:38;147642.09;;;14.08;58.69
6938;BME280;40040;42.706;23.372;2023-04-15T06:53:06;147749.78;;;14.51;56.93
6938;BME280;40040;42.706;23.372;2023-04-15T06:55:33;147803.03;;;14.73;56.69
6938;BME280;40040;42.706;23.372;2023-04-15T06:58:00;147868.59;;;15.00;56.11
6938;BME280;40040;42.706;23.372;2023-04-15T07:00:27;147918.13;;;15.20;54.60
6938;BME280;40040;42.706;23.372;2023-04-15T07:02:54;147854.97;;;14.94;54.62
6938;BME280;40040;42.706;23.372;2023-04-15T07:05:22;147978.84;;;15.44;55.02
6938;BME280;40040;42.706;23.372;2023-04-15T07:07:49;147924.31;;;15.22;54.83
6938;BME280;40040;42.706;23.372;2023-04-15T07:10:18;147899.53;;;15.12;56.30
6938;BME280;40040;42.706;23.372;2023-04-15T07:12:46;147795.56;;;14.70;56.83
6938;BME280;40040;42.706;23.372;2023-04-15T07:15:13;147902.00;;;15.13;56.55
6938;BME280;40040;42.706;23.372;2023-04-15T07:17:40;147857.47;;;14.95;56.79
6938;BME280;40040;42.706;23.372;2023-04-15T07:20:08;147850.06;;;14.92;56.79
6938;BME280;40040;42.706;23.372;2023-04-15T07:22:35;147885.91;;;15.07;56.97
6938;BME280;40040;42.706;23.372;2023-04-15T07:25:03;147961.47;;;15.37;57.22
6938;BME280;40040;42.706;23.372;2023-04-15T07:27:31;147982.56;;;15.46;55.85
6938;BME280;40040;42.706;23.372;2023-04-15T07:29:58;147981.31;;;15.45;56.47
6938;BME280;40040;42.706;23.372;2023-04-15T07:32:24;147973.91;;;15.42;57.24
6938;BME280;40040;42.706;23.372;2023-04-15T07:34:51;147999.91;;;15.53;56.55
6938;BME280;40040;42.706;23.372;2023-04-15T07:37:18;148051.94;;;15.74;56.27
6938;BME280;40040;42.706;23.372;2023-04-15T07:39:45;148050.69;;;15.73;56.16
6938;BME280;40040;42.706;23.372;2023-04-15T07:42:12;148072.97;;;15.83;54.95
6938;BME280;40040;42.706;23.372;2023-04-15T07:44:41;147988.72;;;15.48;56.44
6938;BME280;40040;42.706;23.372;2023-04-15T07:47:07;147924.31;;;15.22;56.86
6938;BME280;40040;42.706;23.372;2023-04-15T07:49:35;147914.44;;;15.18;56.12
6938;BME280;40040;42.706;23.372;2023-04-15T07:52:02;147968.94;;;15.40;56.22
6938;BME280;40040;42.706;23.372;2023-04-15T07:54:28;148040.75;;;15.69;57.32
6938;BME280;40040;42.706;23.372;2023-04-15T07:56:55;148086.63;;;15.88;56.56
6938;BME280;40040;42.706;23.372;2023-04-15T07:59:23;148103.97;;;15.95;55.37
6938;BME280;40040;42.706;23.372;2023-04-15T08:01:53;148076.69;;;15.84;56.50
6938;BME280;40040;42.706;23.372;2023-04-15T08:04:20;148058.09;;;15.76;55.62
6938;BME280;40040;42.706;23.372;2023-04-15T08:06:46;148063.06;;;15.78;55.35
6938;BME280;40040;42.706;23.372;2023-04-15T08:09:14;148144.81;;;16.12;56.04
6938;BME280;40040;42.706;23.372;2023-04-15T08:11:41;148107.66;;;15.97;54.53
6938;BME280;40040;42.706;23.372;2023-04-15T08:14:08;148137.41;;;16.09;55.57
6938;BME280;40040;42.706;23.372;2023-04-15T08:16:35;148293.56;;;16.72;53.32
6938;BME280;40040;42.706;23.372;2023-04-15T08:19:03;148418.75;;;17.23;52.24
6938;BME280;40040;42.706;23.372;2023-04-15T08:21:30;148501.91;;;17.56;51.64
6938;BME280;40040;42.706;23.372;2023-04-15T08:23:56;148572.63;;;17.85;51.82
6938;BME280;40040;42.706;23.372;2023-04-15T08:26:24;148568.91;;;17.83;50.89
6938;BME280;40040;42.706;23.372;2023-04-15T08:28:51;148623.50;;;18.06;50.94
6938;BME280;40040;42.706;23.372;2023-04-15T08:31:18;148539.09;;;17.71;50.50
6938;BME280;40040;42.706;23.372;2023-04-15T08:33:45;148509.34;;;17.59;50.50
6938;BME280;40040;42.706;23.372;2023-04-15T08:36:13;148526.72;;;17.66;48.48
6938;BME280;40040;42.706;23.372;2023-04-15T08:38:40;148585.03;;;17.90;47.50
6938;BME280;40040;42.706;23.372;2023-04-15T08:41:11;148654.50;;;18.18;47.39
6938;BME280;40040;42.706;23.372;2023-04-15T08:43:52;148637.16;;;18.11;44.92
6938;BME280;40040;42.706;23.372;2023-04-15T08:46:20;148740.19;;;18.53;46.11
6938;BME280;40040;42.706;23.372;2023-04-15T08:48:48;148844.47;;;18.95;45.69
6938;BME280;40040;42.706;23.372;2023-04-15T08:51:16;148935.16;;;19.32;43.47
6938;BME280;40040;42.706;23.372;2023-04-15T08:53:44;148995.97;;;19.56;42.19
6938;BME280;40040;42.706;23.372;2023-04-15T08:56:13;149110.25;;;20.02;40.33
6938;BME280;40040;42.706;23.372;2023-04-15T08:58:40;149151.28;;;20.19;40.33
6938;BME280;40040;42.706;23.372;2023-04-15T09:01:07;149224.59;;;20.49;40.35
6938;BME280;40040;42.706;23.372;2023-04-15T09:03:34;149289.22;;;20.75;40.09
6938;BME280;40040;42.706;23.372;2023-04-15T09:06:03;149331.53;;;20.92;40.33
6938;BME280;40040;42.706;23.372;2023-04-15T09:08:31;149335.25;;;20.93;39.41
6938;BME280;40040;42.706;23.372;2023-04-15T09:10:59;149238.28;;;20.54;40.01
6938;BME280;40040;42.706;23.372;2023-04-15T09:13:26;149321.56;;;20.88;39.23
6938;BME280;40040;42.706;23.372;2023-04-15T09:15:53;149355.19;;;21.01;37.96
6938;BME280;40040;42.706;23.372;2023-04-15T09:18:27;149315.34;;;20.85;37.65
6938;BME280;40040;42.706;23.372;2023-04-15T09:20:55;149198.50;;;20.38;38.50
6938;BME280;40040;42.706;23.372;2023-04-15T09:23:22;149187.34;;;20.34;39.45
6938;BME280;40040;42.706;23.372;2023-04-15T09:25:50;149224.59;;;20.49;37.53
6938;BME280;40040;42.706;23.372;2023-04-15T09:28:23;149297.94;;;20.78;37.30
6938;BME280;40040;42.706;23.372;2023-04-15T09:30:54;149264.38;;;20.65;36.85
6938;BME280;40040;42.706;23.372;2023-04-15T09:33:21;149264.38;;;20.65;36.75
6938;BME280;40040;42.706;23.372;2023-04-15T09:35:56;149290.50;;;20.75;36.54
6938;BME280;40040;42.706;23.372;2023-04-15T09:38:24;149301.72;;;20.80;36.99
6938;BME280;40040;42.706;23.372;2023-04-15T09:40:52;149345.16;;;20.97;35.31
6938;BME280;40040;42.706;23.372;2023-04-15T09:43:19;149391.25;;;21.16;35.26
6938;BME280;40040;42.706;23.372;2023-04-15T09:45:48;149457.16;;;21.43;35.56
6938;BME280;40040;42.706;23.372;2023-04-15T09:48:17;149500.66;;;21.60;34.99
6938;BME280;40040;42.706;23.372;2023-04-15T09:50:46;149590.28;;;21.96;34.38
6938;BME280;40040;42.706;23.372;2023-04-15T09:53:16;149572.88;;;21.89;33.61
6938;BME280;40040;42.706;23.372;2023-04-15T09:55:45;149554.19;;;21.82;34.04
6938;BME280;40040;42.706;23.372;2023-04-15T09:58:18;149510.63;;;21.64;34.53
6938;BME280;40040;42.706;23.372;2023-04-15T10:00:46;149485.75;;;21.54;34.87
6938;BME280;40040;42.706;23.372;2023-04-15T10:03:18;149445.94;;;21.38;34.76
6938;BME280;40040;42.706;23.372;2023-04-15T10:05:47;149392.50;;;21.16;34.81
6938;BME280;40040;42.706;23.372;2023-04-15T10:08:15;149368.88;;;21.07;34.78
6938;BME280;40040;42.706;23.372;2023-04-15T10:10:44;149351.47;;;21.00;34.86
6938;BME280;40040;42.706;23.372;2023-04-15T10:13:12;149386.28;;;21.14;35.00
6938;BME280;40040;42.706;23.372;2023-04-15T10:15:44;149391.25;;;21.16;33.95
6938;BME280;40040;42.706;23.372;2023-04-15T10:18:15;149470.81;;;21.48;35.00
6938;BME280;40040;42.706;23.372;2023-04-15T10:20:43;149602.72;;;22.01;32.90
6938;BME280;40040;42.706;23.372;2023-04-15T10:23:10;149674.88;;;22.30;32.70
6938;BME280;40040;42.706;23.372;2023-04-15T10:25:37;149495.72;;;21.58;32.32
6938;BME280;40040;42.706;23.372;2023-04-15T10:28:05;149443.47;;;21.37;32.89
6938;BME280;40040;42.706;23.372;2023-04-15T10:30:32;149377.56;;;21.10;32.59
6938;BME280;40040;42.706;23.372;2023-04-15T10:33:02;149421.09;;;21.28;32.62
6938;BME280;40040;42.706;23.372;2023-04-15T10:35:30;149470.81;;;21.48;33.03
6938;BME280;40040;42.706;23.372;2023-04-15T10:37:58;149505.63;;;21.62;33.46
6938;BME280;40040;42.706;23.372;2023-04-15T10:40:27;149500.66;;;21.60;33.41
6938;BME280;40040;42.706;23.372;2023-04-15T10:42:56;149468.34;;;21.47;33.35
6938;BME280;40040;42.706;23.372;2023-04-15T10:45:25;149508.16;;;21.63;32.79
6938;BME280;40040;42.706;23.372;2023-04-15T10:47:54;149463.34;;;21.45;32.74
6938;BME280;40040;42.706;23.372;2023-04-15T10:50:24;149409.88;;;21.23;32.31
6938;BME280;40040;42.706;23.372;2023-04-15T10:52:52;149409.88;;;21.23;32.92
6938;BME280;40040;42.706;23.372;2023-04-15T10:55:21;149386.28;;;21.14;33.64
6938;BME280;40040;42.706;23.372;2023-04-15T10:57:51;149411.13;;;21.24;33.14
6938;BME280;40040;42.706;23.372;2023-04-15T11:00:23;149406.16;;;21.22;32.61
6938;BME280;40040;42.706;23.372;2023-04-15T11:02:53;149398.69;;;21.19;32.65
6938;BME280;40040;42.706;23.372;2023-04-15T11:05:47;149362.63;;;21.04;33.20
6938;BME280;40040;42.706;23.372;2023-04-15T11:08:10;149352.72;;;21.00;33.92
6938;BME280;40040;42.706;23.372;2023-04-15T11:10:52;149306.63;;;20.82;32.92
6938;BME280;40040;42.706;23.372;2023-04-15T11:13:26;149251.97;;;20.60;33.32
6938;BME280;40040;42.706;23.372;2023-04-15T11:15:58;149324.03;;;20.89;33.63
6938;BME280;40040;42.706;23.372;2023-04-15T11:18:28;149393.72;;;21.17;33.00
6938;BME280;40040;42.706;23.372;2023-04-15T11:20:58;149401.16;;;21.20;32.58
6938;BME280;40040;42.706;23.372;2023-04-15T11:23:33;149306.63;;;20.82;32.83
6938;BME280;40040;42.706;23.372;2023-04-15T11:26:01;149338.97;;;20.95;33.28
6938;BME280;40040;42.706;23.372;2023-04-15T11:28:30;149335.25;;;20.93;33.21
6938;BME280;40040;42.706;23.372;2023-04-15T11:31:05;149291.75;;;20.76;33.24
6938;BME280;40040;42.706;23.372;2023-04-15T11:33:32;149247.00;;;20.58;33.74
6938;BME280;40040;42.706;23.372;2023-04-15T11:36:01;149284.31;;;20.73;33.13
6938;BME280;40040;42.706;23.372;2023-04-15T11:38:28;149271.81;;;20.68;32.99
6938;BME280;40040;42.706;23.372;2023-04-15T11:40:56;149346.44;;;20.98;32.98
6938;BME280;40040;42.706;23.372;2023-04-15T11:43:22;149433.53;;;21.33;32.71
6938;BME280;40040;42.706;23.372;2023-04-15T11:45:52;149424.81;;;21.30;32.54
6938;BME280;40040;42.706;23.372;2023-04-15T11:48:20;149465.88;;;21.46;32.36
6938;BME280;40040;42.706;23.372;2023-04-15T11:50:52;149458.38;;;21.43;33.00
6938;BME280;40040;42.706;23.372;2023-04-15T11:53:22;149411.13;;;21.24;33.45
6938;BME280;40040;42.706;23.372;2023-04-15T11:55:51;149465.88;;;21.46;32.35
6938;BME280;40040;42.706;23.372;2023-04-15T11:58:20;149562.91;;;21.85;31.57
6938;BME280;40040;42.706;23.372;2023-04-15T12:00:49;149572.88;;;21.89;31.08
6938;BME280;40040;42.706;23.372;2023-04-15T12:03:22;149536.75;;;21.75;31.63
6938;BME280;40040;42.706;23.372;2023-04-15T12:06:07;149511.88;;;21.65;31.60
6938;BME280;40040;42.706;23.372;2023-04-15T12:09:09;149533.00;;;21.73;31.79
6938;BME280;40040;42.706;23.372;2023-04-15T12:11:39;149540.47;;;21.76;31.81
6938;BME280;40040;42.706;23.372;2023-04-15T12:14:20;149416.13;;;21.26;32.18
6938;BME280;40040;42.706;23.372;2023-04-15T12:16:50;149377.56;;;21.10;31.99
6938;BME280;40040;42.706;23.372;2023-04-15T12:19:22;149289.22;;;20.75;32.68
6938;BME280;40040;42.706;23.372;2023-04-15T12:21:51;149244.53;;;20.57;32.53
6938;BME280;40040;42.706;23.372;2023-04-15T12:24:21;149266.91;;;20.66;32.96
6938;BME280;40040;42.706;23.372;2023-04-15T12:26:49;149259.41;;;20.63;31.44
6938;BME280;40040;42.706;23.372;2023-04-15T12:29:17;149266.91;;;20.66;32.23
6938;BME280;40040;42.706;23.372;2023-04-15T12:31:49;149289.22;;;20.75;33.41
6938;BME280;40040;42.706;23.372;2023-04-15T12:34:17;149274.34;;;20.69;31.90
6938;BME280;40040;42.706;23.372;2023-04-15T12:36:44;149304.16;;;20.81;32.37
6938;BME280;40040;42.706;23.372;2023-04-15T12:39:12;149302.91;;;20.80;33.32
6938;BME280;40040;42.706;23.372;2023-04-15T12:41:40;149266.91;;;20.66;33.75
6938;BME280;40040;42.706;23.372;2023-04-15T12:44:07;149256.94;;;20.62;32.10
6938;BME280;40040;42.706;23.372;2023-04-15T12:46:34;149281.78;;;20.72;31.98
6938;BME280;40040;42.706;23.372;2023-04-15T12:49:01;149276.81;;;20.70;32.66
6938;BME280;40040;42.706;23.372;2023-04-15T12:51:28;149336.47;;;20.94;32.10
6938;BME280;40040;42.706;23.372;2023-04-15T12:53:56;149321.56;;;20.88;31.41